Time;durP1;ratioP1;P1;durP2;ratioP2;P2;SDS_P1;SDS_P2;PMS_P1;PMS_P2;Temp;Humidity;BMP_temperature;BMP_pressure;BME280_temperature;BME280_humidity;BME280_pressure;Samples;Min_cycle;Max_cycle;Signal;HPM_P1;HPM_P2
2024/04/11 00:02:37;;;;;;;5.00;2.53;;;;;;;;;;5508691;26;20274;-84
2024/04/11 00:05:42;;;;;;;4.03;2.23;;;;;;;;;;5487914;26;20793;-85
2024/04/11 00:08:46;;;;;;;4.70;2.33;;;;;;;;;;5487700;26;20208;-84
2024/04/11 00:11:50;;;;;;;2.90;2.20;;;;;;;;;;5508797;26;20278;-85
2024/04/11 00:14:55;;;;;;;4.43;2.47;;;;;;;;;;5510408;26;20258;-85
2024/04/11 00:17:59;;;;;;;4.27;2.23;;;;;;;;;;5508744;26;20267;-84
2024/04/11 00:21:06;;;;;;;3.70;2.33;;;;;;;;;;5508550;26;20266;-84
2024/04/11 00:24:10;;;;;;;2.17;1.93;;;;;;;;;;5488719;26;20340;-84
2024/04/11 00:27:15;;;;;;;2.93;2.13;;;;;;;;;;5487301;26;20266;-84
2024/04/11 00:30:20;;;;;;;5.37;2.50;;;;;;;;;;5508281;26;20219;-86
2024/04/11 00:33:24;;;;;;;3.80;2.47;;;;;;;;;;5487575;26;20842;-85
2024/04/11 00:36:30;;;;;;;3.10;2.40;;;;;;;;;;5486173;26;20216;-85
2024/04/11 00:39:34;;;;;;;7.70;2.77;;;;;;;;;;5466173;26;20278;-84
2024/04/11 00:42:39;;;;;;;3.40;2.37;;;;;;;;;;5466511;26;20286;-85
2024/04/11 00:45:45;;;;;;;3.83;2.60;;;;;;;;;;5508188;26;20281;-85
2024/04/11 00:48:49;;;;;;;6.70;2.83;;;;;;;;;;5487089;26;20756;-85
2024/04/11 00:51:53;;;;;;;3.40;2.70;;;;;;;;;;5508114;26;20263;-85
2024/04/11 00:54:58;;;;;;;3.43;2.40;;;;;;;;;;5508195;26;20219;-85
2024/04/11 00:58:02;;;;;;;4.77;2.70;;;;;;;;;;5508129;26;20218;-85
2024/04/11 01:01:07;;;;;;;5.27;2.50;;;;;;;;;;5487015;26;20282;-85
2024/04/11 01:04:11;;;;;;;4.50;2.50;;;;;;;;;;5487164;26;20630;-85
2024/04/11 01:07:16;;;;;;;4.67;2.30;;;;;;;;;;5486904;26;20718;-85
2024/04/11 01:10:23;;;;;;;3.57;2.80;;;;;;;;;;5529605;26;20219;-85
2024/04/11 01:13:27;;;;;;;3.20;2.63;;;;;;;;;;5466191;26;20262;-85
2024/04/11 01:16:32;;;;;;;5.00;2.63;;;;;;;;;;5507883;26;20227;-84
2024/04/11 01:19:36;;;;;;;3.70;2.47;;;;;;;;;;5529194;26;20266;-84
2024/04/11 01:22:44;;;;;;;6.80;2.87;;;;;;;;;;5466578;26;20215;-84
2024/04/11 01:25:49;;;;;;;5.70;2.53;;;;;;;;;;5508465;26;20714;-84
2024/04/11 01:28:53;;;;;;;5.50;3.20;;;;;;;;;;5487652;26;20587;-84
2024/04/11 01:31:58;;;;;;;4.97;2.93;;;;;;;;;;5508031;26;20279;-84
2024/04/11 01:35:02;;;;;;;5.50;3.10;;;;;;;;;;5486918;26;20219;-84
2024/04/11 01:38:06;;;;;;;6.30;2.90;;;;;;;;;;5508062;26;20226;-84
2024/04/11 01:41:11;;;;;;;5.13;3.37;;;;;;;;;;5465951;26;20270;-84
2024/04/11 01:44:15;;;;;;;6.37;2.90;;;;;;;;;;5507886;26;20218;-84
2024/04/11 01:47:19;;;;;;;6.00;3.23;;;;;;;;;;5507568;26;20223;-84
2024/04/11 01:50:23;;;;;;;4.10;3.07;;;;;;;;;;5507151;26;20219;-84
2024/04/11 01:53:28;;;;;;;4.97;3.00;;;;;;;;;;5507294;26;20215;-84
2024/04/11 01:56:35;;;;;;;6.10;3.20;;;;;;;;;;5486475;26;20263;-84
2024/04/11 01:59:41;;;;;;;2.77;2.57;;;;;;;;;;5507404;26;20223;-84
2024/04/11 02:02:49;;;;;;;3.60;2.60;;;;;;;;;;5507400;26;20271;-84
2024/04/11 02:05:53;;;;;;;4.53;3.03;;;;;;;;;;5529773;26;20267;-84
2024/04/11 02:09:00;;;;;;;3.80;3.07;;;;;;;;;;5530173;26;20278;-84
2024/04/11 02:12:05;;;;;;;5.00;3.00;;;;;;;;;;5486415;26;20282;-84
2024/04/11 02:15:10;;;;;;;5.10;3.20;;;;;;;;;;5486367;26;20219;-83
2024/04/11 02:18:14;;;;;;;3.87;2.93;;;;;;;;;;5485975;26;20609;-84
2024/04/11 02:21:19;;;;;;;5.00;2.77;;;;;;;;;;5506900;26;20263;-84
2024/04/11 02:24:22;;;;;;;5.30;2.97;;;;;;;;;;5528252;26;20219;-84
2024/04/11 02:27:29;;;;;;;5.67;3.03;;;;;;;;;;5529286;26;20606;-84
2024/04/11 02:30:33;;;;;;;4.80;2.80;;;;;;;;;;5506789;26;20555;-84
2024/04/11 02:33:37;;;;;;;7.23;3.37;;;;;;;;;;5506914;26;20265;-85
2024/04/11 02:36:42;;;;;;;4.67;3.13;;;;;;;;;;5507340;26;20257;-84
2024/04/11 02:39:46;;;;;;;3.30;3.00;;;;;;;;;;5492712;26;20205;-84
2024/04/11 02:42:50;;;;;;;5.53;3.07;;;;;;;;;;5485527;26;20219;-84
2024/04/11 02:45:57;;;;;;;5.87;3.27;;;;;;;;;;5506414;26;20216;-84
2024/04/11 02:49:05;;;;;;;5.07;3.23;;;;;;;;;;5506298;26;20263;-84
2024/04/11 02:52:09;;;;;;;4.70;3.53;;;;;;;;;;5485278;26;20286;-84
2024/04/11 02:55:14;;;;;;;4.93;3.33;;;;;;;;;;5506466;26;20710;-84
2024/04/11 02:58:20;;;;;;;5.47;3.80;;;;;;;;;;5527626;26;20219;-84
2024/04/11 03:01:25;;;;;;;8.50;3.00;;;;;;;;;;5484724;26;20274;-84
2024/04/11 03:04:30;;;;;;;5.67;3.10;;;;;;;;;;5484702;26;20321;-84
2024/04/11 03:07:34;;;;;;;5.17;3.83;;;;;;;;;;5506316;26;20559;-84
2024/04/11 03:10:42;;;;;;;8.17;4.13;;;;;;;;;;5505965;26;20294;-84
2024/04/11 03:13:46;;;;;;;5.00;3.60;;;;;;;;;;5506088;26;20208;-84
2024/04/11 03:16:52;;;;;;;4.83;3.13;;;;;;;;;;5485028;26;20219;-84
2024/04/11 03:19:56;;;;;;;5.43;3.30;;;;;;;;;;5505559;26;20203;-83
2024/04/11 03:23:01;;;;;;;4.77;3.37;;;;;;;;;;5505754;26;20216;-84
2024/04/11 03:26:05;;;;;;;7.40;3.40;;;;;;;;;;5505628;26;20219;-84
2024/04/11 03:29:09;;;;;;;5.87;3.03;;;;;;;;;;5484631;26;20227;-84
2024/04/11 03:32:13;;;;;;;4.87;3.10;;;;;;;;;;5526774;26;20258;-84
2024/04/11 03:35:18;;;;;;;5.10;3.43;;;;;;;;;;5484476;26;20713;-84
2024/04/11 03:38:26;;;;;;;5.33;3.43;;;;;;;;;;5505661;26;20223;-83
2024/04/11 03:41:30;;;;;;;4.83;3.50;;;;;;;;;;5484408;26;20278;-84
2024/04/11 03:44:35;;;;;;;5.30;3.20;;;;;;;;;;5484329;26;20270;-84
2024/04/11 03:47:42;;;;;;;6.00;3.40;;;;;;;;;;5484624;26;20762;-84
2024/04/11 03:50:46;;;;;;;3.93;3.53;;;;;;;;;;5505044;26;20614;-84
2024/04/11 03:53:59;;;;;;;5.00;3.57;;;;;;;;;;5505197;26;20278;-84
2024/04/11 03:57:03;;;;;;;4.33;3.30;;;;;;;;;;5505221;26;20259;-84
2024/04/11 04:00:08;;;;;;;6.33;3.77;;;;;;;;;;5505544;26;20701;-84
2024/04/11 04:03:16;;;;;;;5.70;3.57;;;;;;;;;;5527821;26;20785;-84
2024/04/11 04:06:21;;;;;;;5.73;3.30;;;;;;;;;;5526569;26;20216;-83
2024/04/11 04:09:25;;;;;;;5.90;3.63;;;;;;;;;;5505081;26;20555;-83
2024/04/11 04:12:30;;;;;;;3.87;3.33;;;;;;;;;;5485901;26;20303;-83
2024/04/11 04:15:34;;;;;;;4.10;3.00;;;;;;;;;;5509457;26;20789;-83
2024/04/11 04:18:40;;;;;;;5.60;3.60;;;;;;;;;;5467216;26;20303;-83
2024/04/11 04:21:44;;;;;;;5.67;3.57;;;;;;;;;;5487369;26;20267;-83
2024/04/11 04:24:50;;;;;;;4.87;3.50;;;;;;;;;;5487424;26;20211;-83
2024/04/11 04:27:54;;;;;;;5.03;3.90;;;;;;;;;;5508324;26;20223;-83
2024/04/11 04:31:22;;;;;;;8.13;3.63;;;;;;;;;;5508294;26;20275;-83
2024/04/11 04:34:27;;;;;;;5.90;3.23;;;;;;;;;;5486974;26;20266;-83
2024/04/11 04:37:31;;;;;;;4.80;3.67;;;;;;;;;;5466135;26;20546;-83
2024/04/11 04:40:35;;;;;;;4.80;3.20;;;;;;;;;;5530481;26;20286;-83
2024/04/11 04:43:43;;;;;;;6.60;3.37;;;;;;;;;;5487385;26;20261;-83
2024/04/11 04:46:47;;;;;;;4.70;3.50;;;;;;;;;;5508124;26;20284;-82
2024/04/11 04:49:53;;;;;;;5.67;3.93;;;;;;;;;;5487124;26;20215;-82
2024/04/11 04:52:59;;;;;;;5.83;3.93;;;;;;;;;;5508321;26;20274;-83
2024/04/11 04:56:04;;;;;;;5.33;3.90;;;;;;;;;;5465931;26;20227;-83
2024/04/11 04:59:08;;;;;;;7.57;3.90;;;;;;;;;;5507984;26;20606;-82
2024/04/11 05:02:13;;;;;;;4.57;3.50;;;;;;;;;;5508142;26;20286;-83
2024/04/11 05:05:18;;;;;;;5.23;3.90;;;;;;;;;;5467851;21;20316;-82
2024/04/11 05:08:23;;;;;;;5.87;3.87;;;;;;;;;;5442991;26;20217;-82
2024/04/11 05:11:32;;;;;;;5.20;3.93;;;;;;;;;;5386171;26;20305;-83
2024/04/11 05:14:38;;;;;;;5.40;3.23;;;;;;;;;;5384019;26;20713;-83
2024/04/11 05:17:43;;;;;;;5.53;4.17;;;;;;;;;;5405717;26;20274;-83
2024/04/11 05:20:52;;;;;;;7.73;5.73;;;;;;;;;;5384463;26;20824;-83
2024/04/11 05:23:56;;;;;;;9.83;6.20;;;;;;;;;;5378891;26;20218;-83
2024/04/11 05:27:00;;;;;;;9.60;7.67;;;;;;;;;;5378918;26;20293;-83
2024/04/11 05:30:10;;;;;;;9.73;7.27;;;;;;;;;;5419666;26;20214;-83
2024/04/11 05:33:16;;;;;;;12.13;8.17;;;;;;;;;;5379180;26;20231;-83
2024/04/11 05:36:25;;;;;;;9.30;7.57;;;;;;;;;;5399441;26;20277;-83
2024/04/11 05:39:29;;;;;;;8.83;6.90;;;;;;;;;;5399259;26;20226;-84
2024/04/11 05:42:44;;;;;;;8.27;6.73;;;;;;;;;;5398976;26;20278;-83
2024/04/11 05:45:49;;;;;;;8.73;5.17;;;;;;;;;;5399377;26;20281;-84
2024/04/11 05:48:53;;;;;;;7.53;4.70;;;;;;;;;;5397556;26;20304;-84
2024/04/11 05:51:58;;;;;;;7.53;4.00;;;;;;;;;;5398449;26;20306;-84
2024/04/11 05:55:04;;;;;;;6.33;3.97;;;;;;;;;;5378201;26;20285;-84
2024/04/11 05:58:09;;;;;;;10.43;5.73;;;;;;;;;;5398601;26;20281;-84
2024/04/11 06:01:15;;;;;;;10.17;6.10;;;;;;;;;;5420773;26;20274;-84
2024/04/11 06:04:25;;;;;;;12.97;8.47;;;;;;;;;;5398576;26;20631;-85
2024/04/11 06:07:29;;;;;;;8.90;6.13;;;;;;;;;;5421708;26;20554;-84
2024/04/11 06:10:33;;;;;;;5.63;4.97;;;;;;;;;;5398518;26;20720;-84
2024/04/11 06:13:38;;;;;;;9.03;5.23;;;;;;;;;;5378862;26;20230;-84
2024/04/11 06:16:42;;;;;;;7.63;5.50;;;;;;;;;;5378591;26;20772;-84
2024/04/11 06:19:46;;;;;;;6.90;5.50;;;;;;;;;;5379235;26;20222;-84
2024/04/11 06:22:55;;;;;;;8.03;5.07;;;;;;;;;;5378134;26;20227;-84
2024/04/11 06:26:00;;;;;;;7.10;4.63;;;;;;;;;;5397969;26;20741;-84
2024/04/11 06:29:07;;;;;;;6.80;4.73;;;;;;;;;;5377879;26;20222;-84
2024/04/11 06:32:17;;;;;;;5.63;4.40;;;;;;;;;;5377452;26;20266;-84
2024/04/11 06:35:22;;;;;;;6.40;4.77;;;;;;;;;;5397402;26;20218;-84
2024/04/11 06:38:26;;;;;;;7.20;4.67;;;;;;;;;;5378135;26;20222;-85
2024/04/11 06:41:31;;;;;;;5.17;4.40;;;;;;;;;;5378654;26;20281;-84
2024/04/11 06:44:35;;;;;;;4.90;4.03;;;;;;;;;;5398492;26;20206;-85
2024/04/11 06:47:42;;;;;;;8.47;4.20;;;;;;;;;;5378092;26;20266;-85
2024/04/11 06:50:47;;;;;;;6.27;4.10;;;;;;;;;;5398214;26;20923;-85
2024/04/11 06:53:52;;;;;;;6.40;4.23;;;;;;;;;;5398438;26;20219;-84
2024/04/11 06:56:58;;;;;;;7.33;5.17;;;;;;;;;;5378460;26;20222;-84
2024/04/11 07:00:02;;;;;;;5.70;4.67;;;;;;;;;;5398406;26;20234;-85
2024/04/11 07:03:16;;;;;;;7.00;4.50;;;;;;;;;;5378239;26;20226;-84
2024/04/11 07:09:37;;;;;;;8.40;4.43;;;;;;;;;;5398084;26;20222;-84
2024/04/11 07:12:46;;;;;;;6.10;4.17;;;;;;;;;;5397983;26;20608;-85
2024/04/11 07:15:52;;;;;;;6.67;4.20;;;;;;;;;;5398302;26;20226;-85
2024/04/11 07:18:56;;;;;;;7.03;4.20;;;;;;;;;;5397833;26;20222;-85
2024/04/11 07:22:01;;;;;;;7.37;4.23;;;;;;;;;;5398021;26;20637;-85
2024/04/11 07:25:07;;;;;;;7.97;4.60;;;;;;;;;;5377159;26;20222;-85
2024/04/11 07:28:11;;;;;;;8.10;4.67;;;;;;;;;;5417643;26;20717;-85
2024/04/11 07:31:15;;;;;;;4.50;3.80;;;;;;;;;;5397330;26;20293;-85
2024/04/11 07:34:22;;;;;;;9.77;4.80;;;;;;;;;;5397419;26;20226;-85
2024/04/11 07:37:26;;;;;;;7.57;4.43;;;;;;;;;;5397101;26;20605;-84
2024/04/11 07:40:45;;;;;;;7.73;4.57;;;;;;;;;;5397223;26;20222;-85
2024/04/11 07:43:57;;;;;;;6.27;4.27;;;;;;;;;;5376776;26;20558;-84
2024/04/11 07:47:05;;;;;;;7.53;4.70;;;;;;;;;;5379877;26;20705;-84
2024/04/11 07:50:11;;;;;;;5.97;4.07;;;;;;;;;;5380279;26;20289;-84
2024/04/11 07:53:15;;;;;;;5.77;4.23;;;;;;;;;;5380457;26;20226;-84
2024/04/11 07:56:26;;;;;;;7.07;4.40;;;;;;;;;;5400766;26;20222;-85
2024/04/11 07:59:32;;;;;;;4.90;3.70;;;;;;;;;;5400782;26;20222;-84
2024/04/11 08:02:36;;;;;;;8.90;4.07;;;;;;;;;;5400379;26;20273;-86
2024/04/11 08:05:40;;;;;;;7.07;3.50;;;;;;;;;;5400292;26;20667;-83
2024/04/11 08:08:45;;;;;;;8.83;3.73;;;;;;;;;;5380367;26;20230;-84
2024/04/11 08:11:51;;;;;;;6.23;3.70;;;;;;;;;;5379707;26;20278;-84
2024/04/11 08:14:55;;;;;;;5.07;3.50;;;;;;;;;;5420520;26;20225;-85
2024/04/11 08:18:00;;;;;;;8.07;3.47;;;;;;;;;;5400338;26;20222;-85
2024/04/11 08:21:08;;;;;;;6.33;3.40;;;;;;;;;;5380436;26;20621;-84
2024/04/11 08:24:11;;;;;;;5.13;3.57;;;;;;;;;;5400163;26;20222;-83
2024/04/11 08:27:16;;;;;;;5.33;3.50;;;;;;;;;;5399335;26;20215;-86
2024/04/11 08:30:20;;;;;;;10.97;3.57;;;;;;;;;;5379355;26;20230;-86
2024/04/11 08:33:24;;;;;;;5.47;2.90;;;;;;;;;;5419402;26;20226;-84
2024/04/11 08:36:29;;;;;;;5.67;3.50;;;;;;;;;;5399078;26;20725;-86
2024/04/11 08:39:33;;;;;;;6.07;3.03;;;;;;;;;;5398931;26;20222;-86
2024/04/11 08:42:38;;;;;;;7.83;3.47;;;;;;;;;;5399229;26;20281;-85
2024/04/11 08:45:43;;;;;;;6.30;3.07;;;;;;;;;;5398813;26;20219;-86
2024/04/11 08:48:47;;;;;;;5.10;2.60;;;;;;;;;;5398790;26;20213;-86
2024/04/11 08:51:51;;;;;;;5.50;2.80;;;;;;;;;;5398787;26;20278;-86
2024/04/11 08:54:57;;;;;;;7.80;3.13;;;;;;;;;;5378977;26;20218;-87
2024/04/11 08:58:02;;;;;;;5.23;3.03;;;;;;;;;;5378019;26;20571;-86
2024/04/11 09:01:08;;;;;;;3.43;2.40;;;;;;;;;;5398621;26;20270;-87
2024/04/11 09:04:12;;;;;;;11.23;2.97;;;;;;;;;;5378632;26;20277;-84
2024/04/11 09:07:23;;;;;;;5.47;2.93;;;;;;;;;;5378129;26;20222;-86
2024/04/11 09:10:28;;;;;;;6.13;2.90;;;;;;;;;;5398371;26;20222;-86
2024/04/11 09:13:33;;;;;;;4.30;2.70;;;;;;;;;;5378244;26;20705;-87
2024/04/11 09:16:37;;;;;;;6.37;2.80;;;;;;;;;;5398397;26;20565;-86
2024/04/11 09:19:43;;;;;;;5.27;2.37;;;;;;;;;;5419010;26;20732;-86
2024/04/11 09:22:59;;;;;;;6.73;2.57;;;;;;;;;;5398040;26;20226;-84
2024/04/11 09:26:04;;;;;;;6.77;2.70;;;;;;;;;;5398332;26;20219;-84
2024/04/11 09:29:11;;;;;;;5.70;2.73;;;;;;;;;;5398414;26;20270;-84
2024/04/11 09:32:21;;;;;;;4.43;2.37;;;;;;;;;;5418625;26;20277;-84
2024/04/11 09:35:27;;;;;;;4.33;2.30;;;;;;;;;;5398664;26;20222;-85
2024/04/11 09:38:36;;;;;;;6.07;2.53;;;;;;;;;;5377890;26;20225;-84
2024/04/11 09:41:50;;;;;;;3.67;2.30;;;;;;;;;;5397903;26;20783;-84
2024/04/11 09:44:55;;;;;;;2.33;1.73;;;;;;;;;;5397975;26;20226;-87
2024/04/11 09:48:03;;;;;;;4.87;1.77;;;;;;;;;;5377660;26;20265;-87
2024/04/11 09:51:15;;;;;;;5.60;1.87;;;;;;;;;;5419049;26;20270;-84
2024/04/11 09:54:19;;;;;;;3.87;1.80;;;;;;;;;;5378352;26;20229;-84
2024/04/11 09:57:26;;;;;;;3.03;1.63;;;;;;;;;;5378481;26;20223;-86
2024/04/11 10:00:48;;;;;;;5.27;1.80;;;;;;;;;;5398652;26;20221;-87
2024/04/11 10:04:00;;;;;;;4.20;1.77;;;;;;;;;;5418592;26;20271;-84
2024/04/11 10:07:08;;;;;;;5.50;2.03;;;;;;;;;;5398393;26;20709;-85
2024/04/11 10:10:25;;;;;;;2.67;1.90;;;;;;;;;;5397508;26;20233;-84
2024/04/11 10:13:41;;;;;;;3.37;1.80;;;;;;;;;;5427056;26;20199;-83
2024/04/11 10:16:55;;;;;;;3.53;2.10;;;;;;;;;;5385456;26;20211;-84
2024/04/11 10:20:12;;;;;;;5.47;2.37;;;;;;;;;;5406691;26;20205;-85
2024/04/11 10:23:24;;;;;;;5.00;2.40;;;;;;;;;;5405182;26;20197;-84
2024/04/11 10:26:32;;;;;;;8.07;2.10;;;;;;;;;;5384093;26;20228;-85
2024/04/11 10:29:48;;;;;;;4.97;2.00;;;;;;;;;;5403857;26;20211;-84
2024/04/11 10:32:53;;;;;;;3.57;1.90;;;;;;;;;;5383202;26;20709;-85
2024/04/11 10:35:57;;;;;;;4.30;1.60;;;;;;;;;;5401370;26;20226;-86
2024/04/11 10:39:08;;;;;;;6.77;2.87;;;;;;;;;;5378148;26;20571;-86
2024/04/11 10:42:13;;;;;;;4.07;2.20;;;;;;;;;;5398652;26;20290;-86
2024/04/11 10:45:18;;;;;;;3.87;1.80;;;;;;;;;;5399107;26;20219;-83
2024/04/11 10:48:24;;;;;;;4.17;1.90;;;;;;;;;;5398577;26;20226;-82
2024/04/11 10:51:28;;;;;;;3.97;2.33;;;;;;;;;;5399013;26;20286;-82
2024/04/11 10:54:36;;;;;;;5.83;2.03;;;;;;;;;;5419609;26;20558;-83
2024/04/11 10:57:44;;;;;;;4.87;2.00;;;;;;;;;;5419467;26;20713;-83
2024/04/11 11:01:07;;;;;;;6.37;2.37;;;;;;;;;;5401501;26;20349;-83
2024/04/11 11:04:14;;;;;;;4.27;1.80;;;;;;;;;;5418802;26;20661;-82
2024/04/11 11:07:23;;;;;;;5.37;1.77;;;;;;;;;;5378111;26;20221;-83
2024/04/11 11:10:28;;;;;;;5.57;1.93;;;;;;;;;;5398329;26;20220;-82
2024/04/11 11:13:35;;;;;;;3.50;1.97;;;;;;;;;;5399832;26;20224;-83
2024/04/11 11:16:43;;;;;;;6.10;2.10;;;;;;;;;;5378312;26;20228;-84
2024/04/11 11:19:49;;;;;;;4.00;1.90;;;;;;;;;;5397552;26;20228;-85
2024/04/11 11:22:57;;;;;;;4.43;2.10;;;;;;;;;;5401359;26;20222;-84
2024/04/11 11:26:02;;;;;;;4.73;2.00;;;;;;;;;;5380987;26;20562;-84
2024/04/11 11:29:07;;;;;;;5.47;2.20;;;;;;;;;;5421478;26;20222;-85
2024/04/11 11:32:20;;;;;;;5.97;2.30;;;;;;;;;;5421081;26;20308;-85
2024/04/11 11:35:25;;;;;;;5.80;2.30;;;;;;;;;;5380479;26;20210;-85
2024/04/11 11:38:33;;;;;;;3.60;1.70;;;;;;;;;;5401021;26;20230;-84
2024/04/11 11:41:43;;;;;;;6.27;1.97;;;;;;;;;;5400977;26;20269;-85
2024/04/11 11:48:12;;;;;;;4.07;2.20;;;;;;;;;;5400488;26;20273;-85
2024/04/11 11:51:19;;;;;;;3.30;2.03;;;;;;;;;;5400102;26;20601;-86
2024/04/11 11:54:24;;;;;;;2.57;1.73;;;;;;;;;;5400606;26;20278;-85
2024/04/11 11:57:39;;;;;;;4.40;1.60;;;;;;;;;;5400373;26;20219;-85
2024/04/11 12:00:50;;;;;;;4.57;1.80;;;;;;;;;;5379961;26;20278;-85
2024/04/11 12:03:56;;;;;;;2.77;1.67;;;;;;;;;;5400242;26;20266;-85
2024/04/11 12:07:00;;;;;;;4.87;1.90;;;;;;;;;;5420846;26;20716;-86
2024/04/11 12:10:29;;;;;;;2.77;1.70;;;;;;;;;;5379842;26;20223;-87
2024/04/11 12:13:35;;;;;;;2.67;1.93;;;;;;;;;;5379753;26;20224;-86
2024/04/11 12:16:40;;;;;;;4.30;2.10;;;;;;;;;;5399820;26;20227;-86
2024/04/11 12:19:44;;;;;;;3.97;2.00;;;;;;;;;;5400547;26;20710;-86
2024/04/11 12:22:48;;;;;;;3.13;2.27;;;;;;;;;;5420598;26;20227;-86
2024/04/11 12:25:55;;;;;;;6.97;2.53;;;;;;;;;;5380337;26;20223;-86
2024/04/11 12:28:59;;;;;;;5.13;2.00;;;;;;;;;;5400065;26;20274;-86
2024/04/11 12:32:03;;;;;;;3.57;1.90;;;;;;;;;;5379185;26;20273;-87
2024/04/11 12:35:08;;;;;;;3.40;1.73;;;;;;;;;;5379570;26;20566;-85
2024/04/11 12:38:15;;;;;;;7.90;2.20;;;;;;;;;;5399896;26;20218;-86
2024/04/11 12:41:20;;;;;;;3.93;2.37;;;;;;;;;;5399440;26;20309;-86
2024/04/11 12:44:26;;;;;;;5.70;1.90;;;;;;;;;;5420193;26;20218;-85
2024/04/11 12:47:38;;;;;;;3.93;2.03;;;;;;;;;;5379344;26;20713;-86
2024/04/11 12:50:42;;;;;;;3.17;2.00;;;;;;;;;;5399351;26;20633;-86
2024/04/11 12:53:47;;;;;;;3.70;1.80;;;;;;;;;;5399625;26;20226;-86
2024/04/11 12:57:05;;;;;;;4.43;2.00;;;;;;;;;;5379606;26;20230;-86
2024/04/11 13:06:49;;;;;;;2.87;1.90;;;;;;;;;;5399467;26;20225;-87
2024/04/11 13:10:07;;;;;;;6.07;2.23;;;;;;;;;;5419885;26;20271;-87
2024/04/11 13:13:16;;;;;;;5.00;2.10;;;;;;;;;;5379073;26;20734;-87
2024/04/11 13:16:21;;;;;;;7.40;1.90;;;;;;;;;;5399337;26;20572;-86
2024/04/11 13:19:27;;;;;;;3.50;1.83;;;;;;;;;;5399070;26;20262;-86
2024/04/11 13:22:34;;;;;;;3.57;1.80;;;;;;;;;;5399181;26;20768;-85
2024/04/11 13:25:45;;;;;;;3.27;1.60;;;;;;;;;;5420682;26;20223;-86
2024/04/11 13:28:54;;;;;;;8.47;1.97;;;;;;;;;;5419416;26;20224;-87
2024/04/11 13:31:58;;;;;;;3.70;1.70;;;;;;;;;;5419384;26;20283;-87
2024/04/11 13:35:07;;;;;;;2.53;1.50;;;;;;;;;;5419752;26;20275;-87
2024/04/11 13:38:14;;;;;;;4.68;2.00;;;;;;;;;;5398442;26;20226;-87
2024/04/11 13:41:48;;;;;;;2.40;1.40;;;;;;;;;;5378637;26;20295;-86
2024/04/11 13:44:53;;;;;;;4.07;1.87;;;;;;;;;;5398972;26;20224;-86
2024/04/11 13:48:00;;;;;;;4.17;1.90;;;;;;;;;;5399069;26;20274;-87
2024/04/11 13:51:15;;;;;;;12.73;2.33;;;;;;;;;;5398709;26;20282;-82
2024/04/11 13:54:21;;;;;;;3.87;1.77;;;;;;;;;;5399014;26;20717;-85
2024/04/11 13:57:32;;;;;;;3.40;1.83;;;;;;;;;;5379162;26;20226;-86
2024/04/11 14:00:50;;;;;;;4.03;1.57;;;;;;;;;;5398683;26;20274;-85
2024/04/11 14:03:56;;;;;;;5.23;1.97;;;;;;;;;;5398770;26;20288;-85
2024/04/11 14:07:03;;;;;;;2.30;1.60;;;;;;;;;;5399011;26;20314;-85
2024/04/11 14:10:13;;;;;;;2.50;1.53;;;;;;;;;;5419206;26;20553;-85
2024/04/11 14:13:17;;;;;;;1.40;1.25;;;;;;;;;;5378765;26;20228;-84
2024/04/11 14:19:52;;;;;;;3.97;1.60;;;;;;;;;;5398604;26;20219;-87
2024/04/11 14:23:22;;;;;;;4.05;1.75;;;;;;;;;;5398341;26;20621;-86
2024/04/11 14:26:35;;;;;;;2.22;1.80;;;;;;;;;;5398245;26;20267;-86
2024/04/11 14:29:41;;;;;;;2.78;1.80;;;;;;;;;;5398542;26;20227;-87
2024/04/11 14:39:17;;;;;;;3.03;1.80;;;;;;;;;;5418928;26;20217;-87
2024/04/11 14:42:24;;;;;;;2.90;1.70;;;;;;;;;;5377535;26;20278;-85
2024/04/11 14:45:39;;;;;;;2.35;1.60;;;;;;;;;;5377755;26;20779;-86
2024/04/11 14:48:43;;;;;;;2.27;1.60;;;;;;;;;;5377291;26;20229;-85
2024/04/11 14:51:53;;;;;;;3.75;1.90;;;;;;;;;;5377563;26;20293;-85
2024/04/11 14:55:09;;;;;;;3.10;1.80;;;;;;;;;;5377451;26;20223;-86
2024/04/11 14:58:13;;;;;;;3.72;1.70;;;;;;;;;;5377593;26;20275;-86
2024/04/11 15:01:30;;;;;;;4.50;1.93;;;;;;;;;;5397746;26;20622;-87
2024/04/11 15:04:37;;;;;;;9.57;3.33;;;;;;;;;;5399086;26;20362;-84
2024/04/11 15:07:43;;;;;;;5.00;2.30;;;;;;;;;;5377438;26;20240;-85
2024/04/11 15:10:50;;;;;;;5.40;2.10;;;;;;;;;;5399332;26;20272;-80
2024/04/11 15:13:54;;;;;;;4.03;1.70;;;;;;;;;;5399567;26;20229;-80
2024/04/11 15:20:32;;;;;;;3.27;2.17;;;;;;;;;;5399043;26;20210;-81
2024/04/11 15:23:43;;;;;;;3.97;1.90;;;;;;;;;;5397961;26;20559;-80
2024/04/11 15:26:54;;;;;;;5.53;2.00;;;;;;;;;;5419611;26;20569;-81
2024/04/11 15:30:04;;;;;;;2.70;1.90;;;;;;;;;;5418815;26;20222;-81
2024/04/11 15:33:11;;;;;;;4.93;1.70;;;;;;;;;;5419990;26;20293;-81
2024/04/11 15:36:25;;;;;;;3.97;1.40;;;;;;;;;;5421563;26;20262;-81
2024/04/11 15:39:29;;;;;;;6.63;2.33;;;;;;;;;;5421009;26;20701;-81
2024/04/11 15:42:34;;;;;;;4.13;2.10;;;;;;;;;;5418713;26;20298;-86
2024/04/11 15:45:57;;;;;;;3.63;1.90;;;;;;;;;;5396971;26;20218;-85
2024/04/11 15:49:07;;;;;;;4.13;1.80;;;;;;;;;;5376636;26;20270;-85
2024/04/11 15:52:11;;;;;;;4.03;1.67;;;;;;;;;;5376480;26;20277;-84
2024/04/11 15:55:15;;;;;;;4.00;1.93;;;;;;;;;;5417808;26;20558;-85
2024/04/11 15:58:24;;;;;;;3.90;1.90;;;;;;;;;;5376326;26;20269;-85
2024/04/11 16:01:28;;;;;;;4.97;2.10;;;;;;;;;;5396593;26;20274;-85
2024/04/11 16:04:40;;;;;;;5.43;2.33;;;;;;;;;;5395999;26;20361;-85
2024/04/11 16:07:49;;;;;;;5.27;2.10;;;;;;;;;;5376868;26;20226;-85
2024/04/11 16:11:00;;;;;;;3.40;2.00;;;;;;;;;;5379275;26;20281;-85
2024/04/11 16:14:04;;;;;;;3.03;1.67;;;;;;;;;;5399444;26;20226;-85
2024/04/11 16:17:13;;;;;;;4.17;2.00;;;;;;;;;;5399265;26;20218;-84
2024/04/11 16:20:17;;;;;;;4.07;1.80;;;;;;;;;;5398924;26;20222;-86
2024/04/11 16:23:23;;;;;;;3.17;1.90;;;;;;;;;;5399523;26;20226;-85
2024/04/11 16:26:28;;;;;;;4.83;2.00;;;;;;;;;;5419420;26;20596;-85
2024/04/11 16:29:32;;;;;;;3.47;1.70;;;;;;;;;;5399253;26;20776;-85
2024/04/11 16:32:40;;;;;;;5.07;2.10;;;;;;;;;;5398473;26;20621;-85
2024/04/11 16:35:51;;;;;;;3.70;1.70;;;;;;;;;;5379370;26;20227;-85
2024/04/11 16:38:56;;;;;;;4.20;1.73;;;;;;;;;;5419414;26;20222;-87
2024/04/11 16:42:14;;;;;;;4.60;1.87;;;;;;;;;;5398863;26;20278;-87
2024/04/11 16:45:24;;;;;;;4.40;2.30;;;;;;;;;;5378743;26;20570;-85
2024/04/11 16:48:29;;;;;;;4.33;1.70;;;;;;;;;;5398117;26;20278;-86
2024/04/11 16:51:34;;;;;;;5.50;1.97;;;;;;;;;;5419508;26;20780;-85
2024/04/11 16:54:43;;;;;;;5.53;1.57;;;;;;;;;;5380050;26;20230;-85
2024/04/11 16:57:50;;;;;;;4.87;1.60;;;;;;;;;;5379760;26;20614;-84
2024/04/11 17:01:05;;;;;;;3.63;1.70;;;;;;;;;;5400231;26;20274;-85
2024/04/11 17:04:13;;;;;;;3.63;1.63;;;;;;;;;;5379966;26;20297;-85
2024/04/11 17:07:27;;;;;;;2.53;1.50;;;;;;;;;;5420045;26;20226;-85
2024/04/11 17:10:34;;;;;;;6.97;1.80;;;;;;;;;;5419808;26;20223;-84
2024/04/11 17:13:44;;;;;;;4.53;1.70;;;;;;;;;;5379023;26;20218;-84
2024/04/11 17:23:37;;;;;;;2.50;1.50;;;;;;;;;;5404598;26;20215;-83
2024/04/11 17:26:44;;;;;;;7.03;1.77;;;;;;;;;;5405106;26;20601;-83
2024/04/11 17:30:13;;;;;;;7.07;2.00;;;;;;;;;;5404934;26;20223;-84
2024/04/11 17:36:48;;;;;;;4.37;2.13;;;;;;;;;;5404477;26;20226;-83
2024/04/11 17:40:08;;;;;;;3.90;1.83;;;;;;;;;;5383536;26;20226;-83
2024/04/11 17:43:27;;;;;;;3.93;1.80;;;;;;;;;;5403842;26;20215;-84
2024/04/11 17:46:48;;;;;;;4.50;1.70;;;;;;;;;;5402763;26;20710;-84
2024/04/11 17:49:55;;;;;;;3.70;1.80;;;;;;;;;;5401248;26;20219;-83
2024/04/11 17:53:05;;;;;;;12.03;2.30;;;;;;;;;;5381775;26;20222;-83
2024/04/11 17:56:09;;;;;;;3.40;1.57;;;;;;;;;;5384161;26;20753;-83
2024/04/11 17:59:16;;;;;;;2.80;1.57;;;;;;;;;;5382641;26;20226;-81
2024/04/11 18:02:21;;;;;;;4.30;1.60;;;;;;;;;;5425538;26;20323;-82
2024/04/11 18:05:25;;;;;;;2.40;1.70;;;;;;;;;;5404646;26;20273;-82
2024/04/11 18:08:32;;;;;;;4.97;1.53;;;;;;;;;;5404478;26;20230;-80
2024/04/11 18:11:47;;;;;;;2.33;1.47;;;;;;;;;;5403030;26;20277;-80
2024/04/11 18:14:51;;;;;;;5.10;1.70;;;;;;;;;;5400316;26;20705;-80
2024/04/11 18:17:57;;;;;;;6.57;1.53;;;;;;;;;;5379459;26;20637;-80
2024/04/11 18:21:11;;;;;;;4.10;2.00;;;;;;;;;;5400089;26;20622;-80
2024/04/11 18:24:18;;;;;;;7.80;1.80;;;;;;;;;;5379925;26;20705;-80
2024/04/11 18:27:25;;;;;;;1.63;1.33;;;;;;;;;;5378399;26;20277;-83
2024/04/11 18:30:29;;;;;;;2.63;1.60;;;;;;;;;;5377224;26;20219;-83
2024/04/11 18:33:37;;;;;;;6.30;1.80;;;;;;;;;;5378025;26;20265;-83
2024/04/11 18:36:43;;;;;;;2.50;1.70;;;;;;;;;;5383214;26;20230;-84
2024/04/11 18:43:20;;;;;;;2.60;1.67;;;;;;;;;;5398241;26;20222;-82
2024/04/11 18:46:29;;;;;;;3.37;2.00;;;;;;;;;;5398493;26;20562;-83
2024/04/11 18:49:38;;;;;;;5.30;1.97;;;;;;;;;;5399325;26;20270;-82
2024/04/11 18:52:42;;;;;;;4.33;2.13;;;;;;;;;;5398626;26;20226;-83
2024/04/11 18:55:50;;;;;;;2.67;2.17;;;;;;;;;;5377510;26;20222;-83
2024/04/11 18:58:54;;;;;;;5.13;2.23;;;;;;;;;;5399354;26;20222;-83
2024/04/11 19:01:58;;;;;;;6.67;2.10;;;;;;;;;;5378065;26;20273;-83
2024/04/11 19:05:08;;;;;;;2.77;1.90;;;;;;;;;;5418832;26;20277;-84
2024/04/11 19:08:16;;;;;;;2.80;1.90;;;;;;;;;;5420339;26;20219;-84
2024/04/11 19:11:20;;;;;;;5.10;2.10;;;;;;;;;;5399892;26;20290;-84
2024/04/11 19:14:29;;;;;;;6.90;2.40;;;;;;;;;;5399294;26;20222;-84
2024/04/11 19:17:37;;;;;;;3.33;1.87;;;;;;;;;;5378389;26;20222;-80
2024/04/11 19:20:41;;;;;;;4.70;2.60;;;;;;;;;;5378701;26;20287;-83
2024/04/11 19:23:48;;;;;;;3.23;2.00;;;;;;;;;;5380266;26;20234;-83